MDT,Max TemperatureF,Mean TemperatureF,Min TemperatureF,Max Dew PointF,MeanDew PointF,Min DewpointF,Max Humidity, Mean Humidity, Min Humidity, Max Sea Level PressureIn, Mean Sea Level PressureIn, Min Sea Level PressureIn, Max VisibilityMiles, Mean VisibilityMiles, Min VisibilityMiles, Max Wind SpeedMPH, Mean Wind SpeedMPH, Max Gust SpeedMPH,PrecipitationIn, CloudCover, Events, WindDirDegrees
2012-5-1,78,67,55,33,24,13,40,27,14,29.80,29.62,29.53,10,10,10,20,7,24,0.00,3,,115
2012-5-2,76,64,51,34,30,26,38,30,21,29.78,29.66,29.54,10,10,10,23,8,29,T,3,,102
2012-5-3,83,65,47,37,27,18,61,36,10,29.88,29.74,29.66,10,10,10,23,8,29,0.00,0,,106
2012-5-4,85,69,53,26,20,11,28,18,8,29.81,29.73,29.66,10,10,10,20,9,29,0.00,0,,132
2012-5-5,79,65,50,22,17,12,24,17,10,29.91,29.79,29.69,10,10,9,32,12,37,0.00,0,,277
2012-5-6,73,60,47,17,13,9,24,18,11,29.99,29.90,29.84,10,10,10,23,8,28,0.00,0,,296
2012-5-7,75,60,44,36,22,7,46,29,12,30.02,29.89,29.79,10,10,10,36,10,44,T,2,,7
2012-5-8,76,61,45,37,27,10,60,36,12,30.08,29.97,29.87,10,10,10,18,6,22,0.00,0,,241
2012-5-9,81,63,44,25,16,9,31,19,7,30.03,29.90,29.77,10,10,10,18,6,25,0.00,0,,57
2012-5-10,86,67,48,23,18,13,28,18,7,29.80,29.69,29.57,10,10,10,16,7,21,0.00,0,,106
2012-5-11,80,68,55,39,27,21,43,29,15,29.97,29.79,29.66,10,10,10,26,9,38,T,2,Rain,2
2012-5-12,80,65,49,39,23,3,61,34,6,30.03,29.96,29.89,10,10,10,24,9,36,0.00,0,,66
2012-5-13,76,60,43,25,19,11,29,20,11,30.21,30.03,29.96,10,10,10,30,8,37,0.00,0,,50
2012-5-14,83,64,44,28,18,4,42,24,5,30.17,30.04,29.90,10,10,10,18,6,20,0.00,0,,152
2012-5-15,88,68,47,26,17,10,31,19,6,30.04,29.92,29.80,10,10,10,16,8,18,0.00,0,,145
2012-5-16,83,69,55,40,30,22,55,33,11,29.91,29.83,29.77,10,10,10,32,13,40,T,2,,102
2012-5-17,87,68,49,40,31,20,63,37,10,29.86,29.70,29.47,10,10,10,22,7,24,0.00,0,,103
2012-5-18,83,71,59,34,24,17,36,23,10,29.67,29.51,29.42,10,10,10,35,12,43,0.00,1,,130
2012-5-19,74,62,49,46,35,24,86,51,16,29.94,29.86,29.66,10,10,10,20,5,25,0.09,3,,294
2012-5-20,84,65,46,35,27,18,60,35,10,30.06,29.99,29.91,10,10,10,20,7,26,0.00,0,,51
2012-5-21,91,71,51,30,23,16,38,23,7,30.05,29.92,29.77,10,10,10,15,8,20,0.00,0,,102
2012-5-22,94,75,56,28,21,13,30,18,5,29.81,29.62,29.39,10,10,10,26,10,32,0.00,0,,174
2012-5-23,79,68,57,35,25,16,33,24,14,29.70,29.46,29.34,10,10,8,38,11,47,T,3,Rain,331
2012-5-24,73,60,47,33,18,4,50,29,8,29.69,29.58,29.43,10,10,10,25,11,32,T,2,,325
2012-5-25,89,74,59,37,23,11,29,19,8,29.44,29.37,29.30,10,10,9,38,18,49,0.00,1,,165
2012-5-26,86,66,45,32,19,1,28,18,7,29.73,29.51,29.31,10,8,2,44,19,59,0.00,3,,196
2012-5-27,70,55,39,18,13,3,28,20,12,29.94,29.83,29.71,10,10,10,28,9,37,0.00,1,,277
2012-5-28,76,58,40,25,17,12,39,25,10,30.03,29.96,29.89,10,10,10,23,6,29,0.00,1,,347
2012-5-29,85,66,46,23,15,5,37,22,6,29.98,29.88,29.75,10,10,10,20,9,23,0.00,0,,95
2012-5-30,88,69,50,24,18,6,26,17,7,29.89,29.83,29.76,10,10,10,21,8,29,0.00,0,,346
2012-5-31,88,72,56,31,29,22,33,23,13,29.92,29.83,29.72,10,10,10,15,5,22,0.00,0,,270